createdAt,value
2019-03-20T00:00:22.781Z,18.76
2019-03-20T00:01:23.165Z,18.87
2019-03-20T00:02:22.895Z,18.79
2019-03-20T00:03:23.145Z,18.86
2019-03-20T00:04:22.969Z,18.78
2019-03-20T00:05:22.986Z,18.76
2019-03-20T00:06:23.117Z,18.78
2019-03-20T00:07:22.998Z,18.84
2019-03-20T00:08:23.335Z,18.83
2019-03-20T00:09:23.054Z,18.84
2019-03-20T00:10:23.137Z,18.83
2019-03-20T00:11:23.119Z,18.82
2019-03-20T00:12:23.299Z,18.76
2019-03-20T00:13:23.228Z,18.75
2019-03-20T00:14:23.205Z,18.75
2019-03-20T00:15:23.534Z,18.76
2019-03-20T00:16:23.325Z,18.79
2019-03-20T00:17:23.352Z,18.82
2019-03-20T00:18:23.331Z,18.69
2019-03-20T00:19:23.367Z,18.68
2019-03-20T00:20:23.445Z,18.72
2019-03-20T00:21:23.523Z,18.72
2019-03-20T00:22:24.098Z,18.78
2019-03-20T00:23:23.479Z,18.66
2019-03-20T00:24:23.662Z,18.74
2019-03-20T00:25:23.587Z,18.71
2019-03-20T00:26:23.571Z,18.68
2019-03-20T00:27:23.600Z,18.66
2019-03-20T00:28:23.683Z,18.66
2019-03-20T00:29:24.018Z,18.71
2019-03-20T00:30:23.738Z,18.69
2019-03-20T00:31:23.774Z,18.71
2019-03-20T00:32:23.753Z,18.68
2019-03-20T00:33:23.828Z,18.69
2019-03-20T00:34:23.812Z,18.59
2019-03-20T00:35:23.893Z,18.64
2019-03-20T00:36:24.335Z,18.62
2019-03-20T00:37:23.966Z,18.74
2019-03-20T00:38:24.187Z,18.65
2019-03-20T00:39:24.180Z,18.64
2019-03-20T00:40:24.121Z,18.64
2019-03-20T00:41:24.123Z,18.66
2019-03-20T00:42:24.052Z,18.60
2019-03-20T00:43:24.436Z,18.68
2019-03-20T00:44:24.168Z,18.64
2019-03-20T00:45:24.191Z,18.66
2019-03-20T00:46:24.175Z,18.62
2019-03-20T00:47:24.201Z,18.57
2019-03-20T00:48:24.430Z,18.65
2019-03-20T00:49:24.266Z,18.59
2019-03-20T00:50:24.593Z,18.56
2019-03-20T00:51:24.477Z,18.59
2019-03-20T00:52:24.403Z,18.56
2019-03-20T00:53:24.384Z,18.57
2019-03-20T00:54:24.413Z,18.57
2019-03-20T00:55:24.491Z,18.59
2019-03-20T00:56:24.471Z,18.60
2019-03-20T00:57:24.832Z,18.62
2019-03-20T00:58:24.531Z,18.59
2019-03-20T00:59:24.614Z,18.57
2019-03-20T01:00:24.644Z,18.64
2019-03-20T01:01:24.677Z,18.54
2019-03-20T01:02:24.654Z,18.59
2019-03-20T01:03:24.688Z,18.59
2019-03-20T01:04:25.031Z,18.62
2019-03-20T01:05:24.748Z,18.59
2019-03-20T01:06:24.844Z,18.62
2019-03-20T01:07:24.807Z,18.60
2019-03-20T01:08:24.889Z,18.62
2019-03-20T01:09:24.912Z,18.53
2019-03-20T01:10:24.947Z,18.46
2019-03-20T01:11:25.233Z,18.60
2019-03-20T01:12:24.955Z,18.47
2019-03-20T01:13:25.008Z,18.49
2019-03-20T01:14:25.017Z,18.53
2019-03-20T01:15:25.098Z,18.53
2019-03-20T01:16:25.084Z,18.49
2019-03-20T01:17:25.104Z,18.50
2019-03-20T01:18:25.488Z,18.49
2019-03-20T01:19:25.164Z,18.53
2019-03-20T01:20:25.250Z,18.53
2019-03-20T01:21:25.275Z,18.53
2019-03-20T01:22:25.306Z,18.47
2019-03-20T01:23:25.341Z,18.51
2019-03-20T01:24:25.320Z,18.47
2019-03-20T01:25:25.699Z,18.54
2019-03-20T01:26:25.377Z,18.47
2019-03-20T01:27:25.406Z,18.59
2019-03-20T01:28:25.445Z,18.57
2019-03-20T01:29:25.463Z,18.51
2019-03-20T01:30:25.501Z,18.51
2019-03-20T01:31:25.826Z,18.51
2019-03-20T01:32:25.609Z,18.44
2019-03-20T01:33:25.594Z,18.50
2019-03-20T01:34:25.631Z,18.50
2019-03-20T01:35:25.700Z,18.53
2019-03-20T01:36:25.678Z,18.41
2019-03-20T01:37:26.011Z,18.46
2019-03-20T01:38:25.738Z,18.42
2019-03-20T01:39:25.771Z,18.46
2019-03-20T01:40:25.851Z,18.47
2019-03-20T01:41:25.878Z,18.49
2019-03-20T01:42:25.907Z,18.39
2019-03-20T01:43:26.193Z,18.50
2019-03-20T01:44:25.914Z,18.50
2019-03-20T01:45:26.103Z,18.41
2019-03-20T01:46:25.976Z,18.44
2019-03-20T01:47:26.021Z,18.39
2019-03-20T01:48:26.176Z,18.39
2019-03-20T01:49:26.133Z,18.50
2019-03-20T01:50:26.401Z,18.39
2019-03-20T01:51:26.183Z,18.38
2019-03-20T01:52:26.165Z,18.49
2019-03-20T01:53:26.244Z,18.39
2019-03-20T01:54:26.222Z,18.39
2019-03-20T01:55:26.297Z,18.41
2019-03-20T01:56:26.326Z,18.39
2019-03-20T01:57:26.612Z,18.36
2019-03-20T01:58:26.339Z,18.41
2019-03-20T01:59:26.367Z,18.36
2019-03-20T02:00:26.416Z,18.38
2019-03-20T02:01:26.475Z,18.38
2019-03-20T02:02:26.459Z,18.32
2019-03-20T02:03:26.493Z,18.31
2019-03-20T02:04:26.822Z,18.28
2019-03-20T02:05:35.114Z,18.34
2019-03-20T02:06:26.631Z,18.31
2019-03-20T02:07:26.610Z,18.29
2019-03-20T02:08:26.687Z,18.28
2019-03-20T02:09:26.665Z,18.34
2019-03-20T02:10:26.699Z,18.36
2019-03-20T02:11:27.030Z,18.29
2019-03-20T02:12:26.807Z,18.35
2019-03-20T02:13:26.837Z,18.29
2019-03-20T02:14:26.948Z,18.35
2019-03-20T02:16:27.008Z,18.32
2019-03-20T02:17:27.117Z,18.35
2019-03-20T02:18:27.237Z,18.34
2019-03-20T02:19:26.970Z,18.32
2019-03-20T02:20:26.999Z,18.32
2019-03-20T02:21:27.077Z,18.29
2019-03-20T02:22:27.245Z,18.28
2019-03-20T02:23:27.244Z,18.31
2019-03-20T02:24:27.169Z,18.28
2019-03-20T02:25:27.452Z,18.29
2019-03-20T02:26:27.278Z,18.31
2019-03-20T02:27:27.371Z,18.21
2019-03-20T02:28:27.240Z,18.32
2019-03-20T02:29:27.318Z,18.21
2019-03-20T02:30:27.294Z,18.28
2019-03-20T02:31:27.330Z,18.28
2019-03-20T02:32:27.655Z,18.28
2019-03-20T02:33:27.435Z,18.32
2019-03-20T02:34:27.470Z,18.28
2019-03-20T02:35:27.606Z,18.26
2019-03-20T02:36:27.526Z,18.25
2019-03-20T02:37:27.654Z,18.29
2019-03-20T02:38:27.546Z,18.26
2019-03-20T02:39:27.863Z,18.26
2019-03-20T02:40:27.750Z,18.28
2019-03-20T02:41:27.690Z,18.25
2019-03-20T02:42:27.822Z,18.21
2019-03-20T02:43:27.824Z,18.25
2019-03-20T02:44:27.798Z,18.25
2019-03-20T02:45:27.945Z,18.28
2019-03-20T02:46:28.129Z,18.28
2019-03-20T02:47:27.857Z,18.23
2019-03-20T02:48:27.886Z,18.28
2019-03-20T02:49:27.874Z,18.17
2019-03-20T02:50:27.950Z,18.23
2019-03-20T02:51:27.922Z,18.16
2019-03-20T02:52:27.953Z,18.21
2019-03-20T02:53:28.422Z,18.19
2019-03-20T02:54:28.014Z,18.21
2019-03-20T02:55:28.042Z,18.28
2019-03-20T02:56:28.123Z,18.14
2019-03-20T02:57:28.156Z,18.19
2019-03-20T02:58:28.197Z,18.26
2019-03-20T02:59:28.162Z,18.28
2019-03-20T03:00:28.553Z,18.16
2019-03-20T03:01:28.229Z,18.17
2019-03-20T03:02:28.361Z,18.23
2019-03-20T03:03:28.331Z,18.17
2019-03-20T03:04:28.365Z,18.21
2019-03-20T03:05:28.344Z,18.17
2019-03-20T03:06:28.370Z,18.17
2019-03-20T03:07:28.705Z,18.20
2019-03-20T03:08:29.186Z,18.07
2019-03-20T03:09:28.521Z,18.19
2019-03-20T03:10:28.542Z,18.17
2019-03-20T03:11:28.525Z,18.16
2019-03-20T03:12:28.557Z,18.05
2019-03-20T03:13:28.840Z,18.09
2019-03-20T03:14:29.139Z,18.11
2019-03-20T03:15:28.852Z,18.16
2019-03-20T03:16:28.831Z,18.20
2019-03-20T03:17:28.863Z,18.10
2019-03-20T03:18:28.734Z,18.19
2019-03-20T03:19:28.761Z,18.20
2019-03-20T03:20:29.124Z,18.19
2019-03-20T03:21:28.867Z,18.16
2019-03-20T03:22:28.857Z,18.13
2019-03-20T03:23:29.047Z,18.07
2019-03-20T03:24:29.004Z,18.14
2019-03-20T03:25:28.945Z,18.11
2019-03-20T03:26:29.428Z,18.11
2019-03-20T03:27:29.060Z,18.10
2019-03-20T03:28:29.027Z,18.09
2019-03-20T03:29:29.224Z,18.13
2019-03-20T03:30:29.199Z,18.09
2019-03-20T03:31:29.172Z,18.05
2019-03-20T03:32:29.578Z,18.10
2019-03-20T03:33:29.244Z,18.05
2019-03-20T03:34:29.213Z,18.14
2019-03-20T03:35:29.237Z,18.07
2019-03-20T03:36:29.321Z,18.09
2019-03-20T03:37:29.298Z,18.04
2019-03-20T03:38:29.380Z,18.09
2019-03-20T03:39:29.654Z,18.10
2019-03-20T03:40:29.440Z,18.13
2019-03-20T03:41:29.477Z,18.10
2019-03-20T03:42:29.644Z,18.10
2019-03-20T03:43:29.527Z,18.11
2019-03-20T03:44:29.686Z,18.05
2019-03-20T03:45:29.656Z,18.07
2019-03-20T03:47:29.901Z,18.14
2019-03-20T03:48:29.678Z,18.13
2019-03-20T03:49:29.713Z,18.05
2019-03-20T03:50:29.901Z,18.04
2019-03-20T03:51:29.775Z,18.05
2019-03-20T03:52:29.810Z,18.10
2019-03-20T03:53:30.075Z,18.04
2019-03-20T03:54:29.856Z,18.07
2019-03-20T03:55:29.886Z,18.07
2019-03-20T03:56:29.915Z,18.07
2019-03-20T03:57:29.898Z,18.14
2019-03-20T03:58:32.776Z,18.07
2019-03-20T03:59:30.107Z,18.02
2019-03-20T04:00:30.299Z,18.13
2019-03-20T04:01:30.160Z,18.07
2019-03-20T04:02:30.193Z,18.07
2019-03-20T04:03:30.267Z,17.96
2019-03-20T04:04:30.104Z,17.99
2019-03-20T04:05:30.188Z,18.04
2019-03-20T04:06:35.379Z,18.05
2019-03-20T04:07:30.496Z,18.07
2019-03-20T04:08:30.276Z,18.10
2019-03-20T04:09:30.250Z,18.04
2019-03-20T04:10:30.435Z,18.01
2019-03-20T04:11:30.317Z,18.09
2019-03-20T04:12:30.336Z,18.11
2019-03-20T04:13:30.428Z,17.98
2019-03-20T04:14:30.710Z,17.98
2019-03-20T04:15:30.440Z,17.98
2019-03-20T04:16:30.610Z,17.99
2019-03-20T04:17:30.545Z,17.99
2019-03-20T04:18:30.525Z,17.98
2019-03-20T04:19:30.544Z,17.99
2019-03-20T04:20:30.730Z,17.99
2019-03-20T04:21:30.904Z,17.98
2019-03-20T04:22:30.691Z,17.95
2019-03-20T04:23:30.663Z,18.02
2019-03-20T04:24:30.754Z,17.99
2019-03-20T04:25:30.732Z,18.10
2019-03-20T04:26:30.927Z,17.99
2019-03-20T04:27:30.832Z,17.99
2019-03-20T04:28:31.164Z,17.99
2019-03-20T04:29:30.897Z,18.04
2019-03-20T04:30:30.922Z,17.95
2019-03-20T04:31:30.902Z,17.99
2019-03-20T04:32:31.090Z,17.98
2019-03-20T04:33:31.014Z,18.01
2019-03-20T04:34:31.040Z,18.04
2019-03-20T04:35:31.326Z,18.01
2019-03-20T04:36:31.104Z,17.99
2019-03-20T04:37:31.136Z,18.01
2019-03-20T04:38:31.110Z,18.01
2019-03-20T04:39:31.271Z,17.95
2019-03-20T04:40:31.254Z,17.96
2019-03-20T04:41:31.273Z,17.98
2019-03-20T04:42:31.681Z,17.95
2019-03-20T04:43:31.381Z,17.96
2019-03-20T04:44:31.373Z,17.96
2019-03-20T04:45:31.320Z,17.95
2019-03-20T04:46:31.402Z,17.98
2019-03-20T04:47:31.374Z,17.98
2019-03-20T04:48:31.464Z,17.96
2019-03-20T04:49:31.734Z,17.96
2019-03-20T04:51:31.545Z,18.01
2019-03-20T04:52:31.678Z,17.91
2019-03-20T04:55:31.613Z,17.99
2019-03-20T04:56:32.007Z,18.01
2019-03-20T04:57:31.726Z,18.01
2019-03-20T04:58:31.707Z,17.99
2019-03-20T04:59:31.732Z,18.02
2019-03-20T05:00:31.769Z,17.96
2019-03-20T05:01:31.791Z,17.99
2019-03-20T05:02:31.977Z,17.96
2019-03-20T05:03:32.207Z,17.94
2019-03-20T05:04:31.934Z,17.96
2019-03-20T05:05:31.910Z,17.95
2019-03-20T05:06:31.951Z,17.99
2019-03-20T05:07:31.973Z,17.99
2019-03-20T05:08:32.001Z,17.95
2019-03-20T05:09:32.083Z,17.96
2019-03-20T05:11:32.396Z,17.87
2019-03-20T05:12:32.179Z,17.96
2019-03-20T05:13:32.146Z,17.84
2019-03-20T05:14:32.230Z,17.95
2019-03-20T05:15:32.261Z,17.96
2019-03-20T05:16:32.294Z,17.98
2019-03-20T05:17:32.271Z,17.94
2019-03-20T05:19:32.625Z,17.94
2019-03-20T05:20:32.424Z,17.84
2019-03-20T05:21:32.433Z,17.98
2019-03-20T05:22:32.418Z,17.94
2019-03-20T05:23:32.448Z,17.98
2019-03-20T05:24:32.477Z,17.94
2019-03-20T05:25:32.556Z,17.98
2019-03-20T05:26:32.861Z,17.99
2019-03-20T05:27:32.616Z,17.91
2019-03-20T05:28:32.597Z,17.95
2019-03-20T05:29:32.677Z,18.01
2019-03-20T05:30:32.652Z,17.86
2019-03-20T05:31:32.735Z,17.84
2019-03-20T05:32:32.761Z,17.99
2019-03-20T05:33:33.040Z,17.95
2019-03-20T05:34:32.869Z,17.95
2019-03-20T05:35:32.902Z,17.89
2019-03-20T05:36:32.974Z,17.84
2019-03-20T05:37:32.923Z,17.99
2019-03-20T05:38:32.888Z,17.95
2019-03-20T05:39:33.004Z,17.94
2019-03-20T05:40:33.299Z,17.96
2019-03-20T05:41:32.981Z,17.94
2019-03-20T05:42:33.083Z,17.94
2019-03-20T05:43:33.128Z,17.98
2019-03-20T05:44:33.168Z,17.98
2019-03-20T05:45:33.199Z,17.92
2019-03-20T05:46:33.180Z,17.98
2019-03-20T05:47:33.457Z,17.98
2019-03-20T05:48:33.183Z,17.95
2019-03-20T05:49:33.217Z,17.95
2019-03-20T05:50:33.297Z,17.94
2019-03-20T05:51:33.272Z,17.95
2019-03-20T05:52:33.354Z,17.94
2019-03-20T05:53:33.395Z,17.98
2019-03-20T05:54:33.392Z,17.99
2019-03-20T05:55:33.401Z,17.96
2019-03-20T05:56:33.473Z,17.94
2019-03-20T05:57:33.506Z,17.95
2019-03-20T05:58:33.483Z,18.02
2019-03-20T05:59:33.514Z,17.94
2019-03-20T06:00:33.902Z,17.96
2019-03-20T06:01:33.571Z,17.98
2019-03-20T06:02:33.599Z,17.95
2019-03-20T06:03:33.637Z,17.94
2019-03-20T06:04:33.748Z,17.91
2019-03-20T06:05:33.768Z,17.98
2019-03-20T06:06:34.106Z,17.96
2019-03-20T06:07:33.802Z,17.98
2019-03-20T06:08:33.832Z,17.95
2019-03-20T06:09:33.818Z,17.99
2019-03-20T06:10:33.892Z,17.98
2019-03-20T06:11:33.865Z,17.99
2019-03-20T06:12:34.203Z,17.96
2019-03-20T06:13:33.933Z,17.96
2019-03-20T06:14:33.959Z,17.95
2019-03-20T06:15:34.047Z,17.94
2019-03-20T06:16:34.064Z,17.99
2019-03-20T06:17:34.063Z,18.01
2019-03-20T06:18:34.079Z,17.99
2019-03-20T06:19:34.405Z,17.95
2019-03-20T06:20:34.193Z,17.95
2019-03-20T06:21:34.212Z,17.95
2019-03-20T06:22:34.246Z,17.95
2019-03-20T06:23:34.229Z,17.95
2019-03-20T06:24:34.310Z,17.98
2019-03-20T06:25:34.333Z,18.01
2019-03-20T06:26:34.617Z,18.01
2019-03-20T06:27:34.344Z,18.04
2019-03-20T06:28:34.421Z,17.98
2019-03-20T06:29:34.450Z,17.99
2019-03-20T06:30:34.435Z,17.98
2019-03-20T06:31:34.515Z,18.01
2019-03-20T06:32:34.547Z,18.09
2019-03-20T06:33:34.900Z,17.96
2019-03-20T06:34:34.603Z,18.09
2019-03-20T06:35:34.633Z,18.09
2019-03-20T06:36:34.667Z,18.09
2019-03-20T06:37:34.642Z,18.09
2019-03-20T06:38:34.684Z,18.10
2019-03-20T06:39:34.754Z,18.07
2019-03-20T06:40:35.077Z,18.04
2019-03-20T06:41:34.816Z,18.07
2019-03-20T06:42:34.789Z,18.11
2019-03-20T06:43:34.822Z,18.07
2019-03-20T06:44:34.846Z,18.02
2019-03-20T06:45:34.885Z,18.07
2019-03-20T06:47:34.991Z,18.11
2019-03-20T06:48:35.270Z,18.04
2019-03-20T06:49:34.998Z,18.09
2019-03-20T06:50:35.032Z,18.14
2019-03-20T06:51:35.110Z,18.10
2019-03-20T06:52:35.093Z,18.16
2019-03-20T06:53:35.207Z,18.13
2019-03-20T06:54:35.209Z,18.09
2019-03-20T06:55:35.737Z,18.09
2019-03-20T06:56:35.211Z,18.14
2019-03-20T06:57:35.345Z,18.11
2019-03-20T06:58:35.314Z,18.13
2019-03-20T06:59:35.299Z,18.10
2019-03-20T07:00:35.408Z,18.09
2019-03-20T07:01:35.465Z,18.23
2019-03-20T07:02:35.744Z,18.17
2019-03-20T07:03:35.422Z,18.13
2019-03-20T07:04:35.498Z,18.19
2019-03-20T07:05:35.552Z,18.17
2019-03-20T07:06:35.543Z,18.23
2019-03-20T07:07:43.469Z,18.14
2019-03-20T07:08:35.614Z,18.25
2019-03-20T07:09:35.655Z,18.21
2019-03-20T07:10:35.710Z,18.28
2019-03-20T07:11:35.656Z,18.25
2019-03-20T07:12:35.741Z,18.25
2019-03-20T07:13:35.766Z,18.25
2019-03-20T07:14:35.803Z,18.23
2019-03-20T07:15:36.079Z,18.29
2019-03-20T07:16:35.856Z,18.23
2019-03-20T07:17:35.832Z,18.28
2019-03-20T07:18:35.862Z,18.29
2019-03-20T07:19:35.948Z,18.31
2019-03-20T07:21:36.005Z,18.28
2019-03-20T07:22:36.283Z,18.31
2019-03-20T07:23:36.015Z,18.28
2019-03-20T07:24:36.041Z,18.31
2019-03-20T07:25:36.071Z,18.31
2019-03-20T07:26:36.158Z,18.31
2019-03-20T07:27:36.181Z,18.31
2019-03-20T07:28:36.211Z,18.28
2019-03-20T07:29:36.495Z,18.29
2019-03-20T07:30:36.231Z,18.29
2019-03-20T07:31:36.326Z,18.31
2019-03-20T07:32:36.394Z,18.29
2019-03-20T07:33:36.367Z,18.29
2019-03-20T07:34:36.352Z,18.26
2019-03-20T07:35:36.381Z,18.34
2019-03-20T07:36:36.460Z,18.38
2019-03-20T07:37:36.492Z,18.38
2019-03-20T07:38:36.484Z,18.41
2019-03-20T07:40:36.531Z,18.44
2019-03-20T07:41:36.601Z,18.47
2019-03-20T07:42:36.975Z,18.42
2019-03-20T07:43:36.681Z,18.41
2019-03-20T07:44:36.697Z,18.47
2019-03-20T07:45:36.677Z,18.42
2019-03-20T07:46:36.705Z,18.41
2019-03-20T07:47:36.890Z,18.46
2019-03-20T07:48:37.111Z,18.39
2019-03-20T07:49:36.797Z,18.50
2019-03-20T07:50:36.829Z,18.44
2019-03-20T07:51:36.855Z,18.51
2019-03-20T07:52:36.951Z,18.42
2019-03-20T07:54:36.997Z,18.42
2019-03-20T07:55:37.327Z,18.47
2019-03-20T07:56:37.057Z,18.51
2019-03-20T07:57:37.081Z,18.47
2019-03-20T07:58:37.078Z,18.47
2019-03-20T07:59:37.144Z,18.47
2019-03-20T08:00:37.195Z,18.51
2019-03-20T08:01:37.159Z,18.50
2019-03-20T08:02:37.231Z,18.53
2019-03-20T08:03:37.218Z,18.53
2019-03-20T08:04:37.243Z,18.50
2019-03-20T08:05:37.331Z,18.56
2019-03-20T08:06:37.385Z,18.62
2019-03-20T08:07:37.701Z,18.56
2019-03-20T08:08:37.424Z,18.62
2019-03-20T08:09:37.528Z,18.59
2019-03-20T08:10:37.476Z,18.62
2019-03-20T08:11:37.508Z,18.64
2019-03-20T08:12:37.491Z,18.65
2019-03-20T08:13:37.520Z,18.66
2019-03-20T08:14:37.902Z,18.62
2019-03-20T08:15:37.583Z,18.65
2019-03-20T08:16:37.623Z,18.62
2019-03-20T08:17:37.685Z,18.60
2019-03-20T08:18:37.668Z,18.65
2019-03-20T08:19:37.745Z,18.62
2019-03-20T08:20:37.780Z,18.65
2019-03-20T08:21:37.759Z,18.69
2019-03-20T08:22:37.795Z,18.75
2019-03-20T08:23:37.874Z,18.66
2019-03-20T08:24:37.902Z,18.74
2019-03-20T08:25:37.894Z,18.69
2019-03-20T08:27:37.941Z,18.75
2019-03-20T08:28:38.027Z,18.69
2019-03-20T08:29:38.101Z,18.74
2019-03-20T08:30:38.111Z,18.74
2019-03-20T08:31:38.124Z,18.76
2019-03-20T08:32:38.160Z,18.82
2019-03-20T08:33:38.119Z,18.78
2019-03-20T08:35:38.514Z,18.83
2019-03-20T08:36:38.265Z,18.78
2019-03-20T08:37:38.305Z,18.76
2019-03-20T08:38:38.291Z,18.90
2019-03-20T08:39:38.314Z,18.84
2019-03-20T08:41:38.421Z,18.86
2019-03-20T08:42:38.705Z,18.84
2019-03-20T08:43:38.432Z,18.87
2019-03-20T08:44:38.506Z,18.90
2019-03-20T08:46:38.519Z,18.84
2019-03-20T08:47:38.553Z,18.89
2019-03-20T08:48:38.640Z,18.94
2019-03-20T08:49:38.614Z,18.87
2019-03-20T08:50:38.641Z,18.97
2019-03-20T08:51:38.732Z,18.89
2019-03-20T08:52:38.752Z,19.07
2019-03-20T08:53:38.781Z,18.93
2019-03-20T08:54:39.116Z,18.94
2019-03-20T08:55:38.842Z,18.91
2019-03-20T08:56:38.873Z,18.94
2019-03-20T08:57:38.852Z,19.02
2019-03-20T08:58:38.886Z,19.02
2019-03-20T08:59:38.924Z,18.97
2019-03-20T09:00:39.297Z,19.01
2019-03-20T09:01:39.027Z,19.05
2019-03-20T09:02:39.011Z,19.07
2019-03-20T09:04:39.160Z,19.12
2019-03-20T09:05:39.102Z,19.06
2019-03-20T09:06:39.492Z,19.06
2019-03-20T09:08:39.364Z,19.07
2019-03-20T09:09:39.274Z,19.15
2019-03-20T09:10:39.272Z,19.13
2019-03-20T09:11:39.278Z,19.15
2019-03-20T09:12:39.316Z,19.09
2019-03-20T09:13:39.502Z,19.15
2019-03-20T09:14:39.426Z,19.20
2019-03-20T09:15:39.404Z,19.16
2019-03-20T09:16:39.489Z,19.21
2019-03-20T09:17:39.464Z,19.24
2019-03-20T09:18:39.499Z,19.28
2019-03-20T09:19:39.825Z,19.31
2019-03-20T09:20:39.558Z,19.28
2019-03-20T09:21:39.591Z,19.24
2019-03-20T09:22:39.629Z,19.32
2019-03-20T09:23:40.849Z,19.31
2019-03-20T09:24:39.732Z,19.38
2019-03-20T09:25:39.763Z,19.28
2019-03-20T09:26:40.051Z,19.35
2019-03-20T09:27:39.781Z,19.34
2019-03-20T09:28:39.854Z,19.35
2019-03-20T09:29:41.211Z,19.38
2019-03-20T09:30:39.915Z,19.38
2019-03-20T09:31:39.899Z,19.46
2019-03-20T09:32:39.977Z,19.45
2019-03-20T09:33:40.483Z,19.47
2019-03-20T09:34:40.407Z,19.47
2019-03-20T09:35:40.092Z,19.50
2019-03-20T09:36:43.458Z,19.43
2019-03-20T09:37:50.881Z,19.42
2019-03-20T09:38:43.676Z,19.49
2019-03-20T09:39:40.147Z,19.55
2019-03-20T09:40:40.479Z,19.47
2019-03-20T09:41:40.209Z,19.47
2019-03-20T09:42:40.242Z,19.57
2019-03-20T09:43:40.322Z,19.52
2019-03-20T09:44:40.313Z,19.55
2019-03-20T09:45:40.333Z,19.60
2019-03-20T09:46:40.536Z,19.49
2019-03-20T09:47:40.392Z,19.65
2019-03-20T09:48:40.473Z,19.61
2019-03-20T09:49:40.510Z,19.55
2019-03-20T09:50:40.537Z,19.61
2019-03-20T09:51:40.516Z,19.65
2019-03-20T09:52:40.553Z,19.62
2019-03-20T09:53:40.581Z,19.67
2019-03-20T09:54:40.664Z,19.67
2019-03-20T09:56:40.788Z,19.75
2019-03-20T09:57:40.769Z,19.76
2019-03-20T09:58:40.753Z,19.72
2019-03-20T09:59:40.771Z,19.76
2019-03-20T10:00:40.803Z,19.75
2019-03-20T10:01:40.836Z,19.72
2019-03-20T10:02:40.859Z,19.79
2019-03-20T10:03:40.922Z,19.79
2019-03-20T10:04:40.972Z,19.83
2019-03-20T10:05:41.306Z,19.80
2019-03-20T10:06:41.001Z,19.79
2019-03-20T10:07:41.021Z,19.80
2019-03-20T10:09:41.135Z,19.82
2019-03-20T10:10:41.179Z,19.86
2019-03-20T10:11:41.444Z,19.83
2019-03-20T10:12:41.181Z,19.83
2019-03-20T10:13:41.211Z,19.82
2019-03-20T10:14:41.285Z,19.79
2019-03-20T10:15:41.271Z,19.82
2019-03-20T10:16:41.356Z,19.92
2019-03-20T10:17:41.343Z,19.89
2019-03-20T10:18:42.000Z,19.92
2019-03-20T10:19:41.447Z,19.87
2019-03-20T10:21:41.510Z,19.92
2019-03-20T10:23:41.517Z,19.92
2019-03-20T10:24:41.598Z,19.89
2019-03-20T10:26:41.967Z,19.92
2019-03-20T10:27:41.647Z,19.97
2019-03-20T10:28:41.724Z,20.07
2019-03-20T10:29:41.760Z,19.98
2019-03-20T10:31:41.769Z,20.02
2019-03-20T10:32:41.800Z,20.02
2019-03-20T10:33:42.719Z,20.07
2019-03-20T10:34:42.204Z,20.12
2019-03-20T10:35:49.952Z,20.13
2019-03-20T10:36:42.278Z,20.02
2019-03-20T10:38:42.233Z,20.10
2019-03-20T10:39:42.020Z,20.13
2019-03-20T10:40:42.363Z,20.13
2019-03-20T10:41:42.097Z,20.13
2019-03-20T10:42:42.170Z,20.19
2019-03-20T10:43:42.149Z,20.19
2019-03-20T10:44:42.235Z,20.15
2019-03-20T10:45:42.261Z,20.13
2019-03-20T10:46:42.248Z,20.17
2019-03-20T10:47:42.588Z,20.19
2019-03-20T10:48:42.363Z,20.15
2019-03-20T10:49:42.463Z,20.26
2019-03-20T10:50:42.425Z,20.17
2019-03-20T10:51:42.402Z,20.17
2019-03-20T10:52:42.435Z,20.23
2019-03-20T10:53:42.523Z,20.22
2019-03-20T10:54:42.797Z,20.26
2019-03-20T10:55:42.527Z,20.23
2019-03-20T10:56:42.614Z,20.26
2019-03-20T10:57:42.693Z,20.25
2019-03-20T10:58:42.678Z,20.26
2019-03-20T10:59:42.654Z,20.20
2019-03-20T11:00:42.765Z,20.26
2019-03-20T11:01:43.088Z,20.33
2019-03-20T11:02:42.782Z,20.35
2019-03-20T11:03:42.842Z,20.25
2019-03-20T11:04:42.881Z,20.26
2019-03-20T11:05:42.852Z,20.31
2019-03-20T11:06:42.931Z,20.27
2019-03-20T11:07:42.933Z,20.37
2019-03-20T11:08:43.247Z,20.30
2019-03-20T11:09:43.024Z,20.33
2019-03-20T11:10:43.012Z,20.35
2019-03-20T11:11:43.055Z,20.41
2019-03-20T11:12:43.127Z,20.33
2019-03-20T11:13:43.161Z,20.40
2019-03-20T11:14:43.139Z,20.35
2019-03-20T11:15:43.470Z,20.46
2019-03-20T11:16:43.209Z,20.40
2019-03-20T11:17:43.303Z,20.40
2019-03-20T11:18:43.326Z,20.34
2019-03-20T11:19:43.345Z,20.44
2019-03-20T11:20:43.380Z,20.44
2019-03-20T11:21:43.361Z,20.46
2019-03-20T11:22:43.694Z,20.48
2019-03-20T11:23:43.432Z,20.37
2019-03-20T11:24:43.471Z,20.44
2019-03-20T11:25:43.535Z,20.51
2019-03-20T11:26:43.522Z,20.44
2019-03-20T11:27:43.600Z,20.44
2019-03-20T11:28:43.643Z,20.42
2019-03-20T11:29:43.920Z,20.48
2019-03-20T11:30:43.703Z,20.50
2019-03-20T11:31:43.734Z,20.48
2019-03-20T11:32:43.715Z,20.46
2019-03-20T11:33:43.752Z,20.44
2019-03-20T11:34:43.782Z,20.56
2019-03-20T11:35:43.857Z,20.46
2019-03-20T11:36:44.140Z,20.46
2019-03-20T11:37:43.881Z,20.40
2019-03-20T11:38:43.906Z,20.42
2019-03-20T11:39:43.941Z,20.48
2019-03-20T11:40:43.972Z,20.60
2019-03-20T11:41:44.062Z,20.42
2019-03-20T11:42:44.040Z,20.53
2019-03-20T11:43:44.365Z,20.60
2019-03-20T11:44:44.107Z,20.57
2019-03-20T11:45:44.186Z,20.54
2019-03-20T11:46:44.175Z,20.54
2019-03-20T11:47:44.199Z,20.54
2019-03-20T11:48:44.235Z,20.58
2019-03-20T11:49:44.315Z,20.58
2019-03-20T11:50:44.645Z,20.60
2019-03-20T11:51:44.330Z,20.57
2019-03-20T11:52:44.417Z,20.57
2019-03-20T11:53:44.396Z,20.57
2019-03-20T11:54:44.473Z,20.57
2019-03-20T11:55:44.513Z,20.61
2019-03-20T11:56:44.493Z,20.58
2019-03-20T11:57:44.531Z,20.58
2019-03-20T11:58:44.603Z,20.58
2019-03-20T11:59:44.605Z,20.61
2019-03-20T12:00:44.681Z,20.57
2019-03-20T12:01:44.746Z,20.60
2019-03-20T12:02:44.683Z,20.60
2019-03-20T12:03:44.764Z,20.61
2019-03-20T12:04:44.751Z,20.56
2019-03-20T12:05:44.831Z,20.61
2019-03-20T12:06:44.812Z,20.61
2019-03-20T12:07:44.896Z,20.64
2019-03-20T12:08:44.926Z,20.61
2019-03-20T12:09:44.988Z,20.64
2019-03-20T12:10:44.941Z,20.63
2019-03-20T12:11:46.083Z,20.61
2019-03-20T12:12:45.063Z,20.63
2019-03-20T12:13:45.100Z,20.61
2019-03-20T12:14:45.074Z,20.69
2019-03-20T12:15:45.109Z,20.73
2019-03-20T12:16:45.188Z,20.76
2019-03-20T12:17:45.174Z,20.73
2019-03-20T12:18:45.257Z,20.72
2019-03-20T12:19:45.307Z,20.79
2019-03-20T12:20:45.269Z,20.78
2019-03-20T12:21:45.613Z,20.79
2019-03-20T12:22:45.337Z,20.76
2019-03-20T12:23:45.422Z,20.82
2019-03-20T12:24:45.450Z,20.82
2019-03-20T12:25:45.481Z,20.76
2019-03-20T12:26:45.462Z,20.85
2019-03-20T12:27:45.497Z,20.85
2019-03-20T12:28:45.887Z,20.85
2019-03-20T12:29:45.620Z,20.91
2019-03-20T12:30:45.604Z,20.78
2019-03-20T12:31:45.634Z,20.81
2019-03-20T12:32:45.666Z,20.79
2019-03-20T12:33:45.756Z,20.91
2019-03-20T12:34:45.732Z,20.96
2019-03-20T12:35:46.115Z,20.83
2019-03-20T12:36:45.843Z,20.85
2019-03-20T12:37:45.831Z,20.90
2019-03-20T12:38:45.870Z,20.90
2019-03-20T12:39:53.042Z,20.91
2019-03-20T12:40:45.995Z,20.97
2019-03-20T12:41:46.023Z,20.94
2019-03-20T12:42:46.313Z,20.87
2019-03-20T12:43:46.086Z,20.97
2019-03-20T12:44:46.115Z,20.88
2019-03-20T12:45:46.143Z,20.88
2019-03-20T12:46:46.128Z,20.91
2019-03-20T12:47:46.166Z,20.98
2019-03-20T12:48:46.247Z,21.00
2019-03-20T12:49:46.221Z,20.98
2019-03-20T12:50:46.307Z,20.90
2019-03-20T12:51:46.335Z,20.90
2019-03-20T12:52:46.338Z,20.94
2019-03-20T12:53:46.408Z,20.94
2019-03-20T12:54:46.396Z,20.90
2019-03-20T12:55:46.769Z,20.93
2019-03-20T12:56:46.558Z,20.96
2019-03-20T12:57:46.507Z,20.97
2019-03-20T12:58:46.526Z,21.05
2019-03-20T12:59:46.601Z,20.96
2019-03-20T13:01:27.109Z,21.03
2019-03-20T13:02:27.144Z,20.97
2019-03-20T13:03:27.131Z,20.97
2019-03-20T13:04:27.207Z,20.96
2019-03-20T13:05:27.198Z,21.03
2019-03-20T13:06:27.278Z,20.97
2019-03-20T13:07:27.606Z,21.01
2019-03-20T13:08:27.345Z,21.03
2019-03-20T13:09:27.324Z,20.98
2019-03-20T13:10:27.404Z,20.98
2019-03-20T13:11:27.432Z,20.98
2019-03-20T13:12:27.426Z,20.97
2019-03-20T13:13:27.453Z,20.98
2019-03-20T13:14:27.832Z,21.00
2019-03-20T13:15:27.523Z,21.00
2019-03-20T13:16:27.604Z,20.98
2019-03-20T13:17:27.636Z,20.96